Time,TemperatureF,DewpointF,PressureIn,WindDirection,WindDirectionDegrees,WindSpeedMPH,WindSpeedGustMPH,Humidity,HourlyPrecipIn,Conditions,Clouds,dailyrainin,SoftwareType,DateUTC
2013-05-18 00:14:00,60.4,-40.6,30.13,East,90,5.3,-999.0,1,-99.99,,,0.00,Acu-Link.com,2013-05-18 04:14:00,
2013-05-18 00:29:00,60.8,-40.4,30.13,NE,45,3.7,-999.0,1,-99.99,,,0.00,Acu-Link.com,2013-05-18 04:29:00,
2013-05-18 00:44:00,60.8,-40.4,30.13,SE,135,4.7,-999.0,1,-99.99,,,0.00,Acu-Link.com,2013-05-18 04:44:00,
2013-05-18 00:59:00,60.8,-40.4,30.13,SE,135,4.7,-999.0,1,-99.99,,,0.00,Acu-Link.com,2013-05-18 04:59:00,
2013-05-18 01:15:00,60.8,-40.4,30.13,SE,135,3.7,-999.0,1,-99.99,,,0.00,Acu-Link.com,2013-05-18 05:15:00,
2013-05-18 01:30:00,60.8,-40.4,30.13,South,180,3.2,-999.0,1,-99.99,,,0.00,Acu-Link.com,2013-05-18 05:30:00,
2013-05-18 01:45:00,61.0,-40.2,30.13,East,90,3.2,-999.0,1,-99.99,,,0.00,Acu-Link.com,2013-05-18 05:45:00,
2013-05-18 02:01:00,61.2,-40.1,30.13,ESE,112,4.7,-999.0,1,-99.99,,,0.00,Acu-Link.com,2013-05-18 06:01:00,
2013-05-18 02:16:00,61.3,-40.1,30.13,South,180,4.2,-999.0,1,-99.99,,,0.00,Acu-Link.com,2013-05-18 06:16:00,
2013-05-18 02:31:00,61.5,-39.9,30.13,ESE,112,3.2,-999.0,1,-99.99,,,0.00,Acu-Link.com,2013-05-18 06:31:00,
2013-05-18 02:47:00,61.5,-39.9,30.12,SE,135,4.2,-999.0,1,-99.99,,,0.00,Acu-Link.com,2013-05-18 06:47:00,
2013-05-18 03:02:00,61.7,-39.8,30.13,SE,135,3.2,-999.0,1,-99.99,,,0.00,Acu-Link.com,2013-05-18 07:02:00,
2013-05-18 03:17:00,62.1,-39.6,30.13,ESE,112,4.2,-999.0,1,-99.99,,,0.00,Acu-Link.com,2013-05-18 07:17:00,
2013-05-18 03:32:00,64.2,-38.3,30.13,SE,135,5.8,-999.0,1,-99.99,,,0.00,Acu-Link.com,2013-05-18 07:32:00,
2013-05-18 03:47:00,62.1,-39.6,30.13,SE,135,3.7,-999.0,1,-99.99,,,0.00,Acu-Link.com,2013-05-18 07:47:00,
2013-05-18 04:02:00,62.1,-39.6,30.14,SSE,157,3.7,-999.0,1,-99.99,,,0.00,Acu-Link.com,2013-05-18 08:02:00,
2013-05-18 04:17:00,62.1,-39.6,30.14,SSE,157,3.7,-999.0,1,-99.99,,,0.00,Acu-Link.com,2013-05-18 08:17:00,
2013-05-18 04:32:00,62.1,-39.6,30.15,South,180,2.2,-999.0,1,-99.99,,,0.00,Acu-Link.com,2013-05-18 08:32:00,
2013-05-18 04:47:00,61.9,-39.7,30.15,South,180,2.2,-999.0,1,-99.99,,,0.00,Acu-Link.com,2013-05-18 08:47:00,
2013-05-18 05:03:00,62.1,-39.6,30.16,WSW,247,2.7,-999.0,1,-99.99,,,0.00,Acu-Link.com,2013-05-18 09:03:00,
2013-05-18 05:19:00,62.1,-39.6,30.16,SE,135,2.2,-999.0,1,-99.99,,,0.00,Acu-Link.com,2013-05-18 09:19:00,
2013-05-18 05:34:00,62.1,-39.6,30.17,SSE,157,2.7,-999.0,1,-99.99,,,0.00,Acu-Link.com,2013-05-18 09:34:00,
2013-05-18 05:49:00,62.2,-39.5,30.17,South,180,6.8,-999.0,1,-99.99,,,0.00,Acu-Link.com,2013-05-18 09:49:00,
2013-05-18 06:04:00,62.6,-39.3,30.17,SW,225,2.7,-999.0,1,-99.99,,,0.00,Acu-Link.com,2013-05-18 10:04:00,
2013-05-18 06:20:00,62.6,-39.3,30.17,ESE,112,2.2,-999.0,1,-99.99,,,0.00,Acu-Link.com,2013-05-18 10:20:00,
2013-05-18 06:36:00,63.0,-39.0,30.18,ESE,112,4.2,-999.0,1,-99.99,,,0.00,Acu-Link.com,2013-05-18 10:36:00,
2013-05-18 06:51:00,63.0,-39.0,30.18,ESE,112,4.2,-999.0,1,-99.99,,,0.00,Acu-Link.com,2013-05-18 10:51:00,
2013-05-18 07:09:00,63.5,-38.7,30.18,ESE,112,6.3,-999.0,1,-99.99,,,0.00,Acu-Link.com,2013-05-18 11:09:00,
2013-05-18 07:25:00,63.1,-39.0,30.19,SSE,157,6.8,-999.0,1,-99.99,,,0.00,Acu-Link.com,2013-05-18 11:25:00,
2013-05-18 07:41:00,63.5,-38.7,30.19,ESE,112,4.2,-999.0,1,-99.99,,,0.00,Acu-Link.com,2013-05-18 11:41:00,
2013-05-18 07:57:00,63.0,-39.0,30.19,ESE,112,3.2,-999.0,1,-99.99,,,0.00,Acu-Link.com,2013-05-18 11:57:00,
2013-05-18 08:13:00,62.8,-39.2,30.20,ESE,112,5.8,-999.0,1,-99.99,,,0.00,Acu-Link.com,2013-05-18 12:13:00,
2013-05-18 08:30:00,63.1,-39.0,30.21,SSE,157,7.3,-999.0,1,-99.99,,,0.00,Acu-Link.com,2013-05-18 12:30:00,
2013-05-18 08:45:00,63.7,-38.6,30.21,SSW,202,3.7,-999.0,1,-99.99,,,0.00,Acu-Link.com,2013-05-18 12:45:00,
2013-05-18 09:02:00,64.4,-38.2,30.22,South,180,4.7,-999.0,1,-99.99,,,0.00,Acu-Link.com,2013-05-18 13:02:00,
2013-05-18 09:18:00,64.0,-38.4,30.22,ESE,112,5.3,-999.0,1,-99.99,,,0.00,Acu-Link.com,2013-05-18 13:18:00,
2013-05-18 09:35:00,63.9,-38.5,30.22,ENE,67,4.7,-999.0,1,-99.99,,,0.00,Acu-Link.com,2013-05-18 13:35:00,
2013-05-18 09:51:00,63.5,-38.7,30.22,SE,135,4.7,-999.0,1,-99.99,,,0.00,Acu-Link.com,2013-05-18 13:51:00,
2013-05-18 10:06:00,64.0,-38.4,30.21,ESE,112,3.2,-999.0,1,-99.99,,,0.00,Acu-Link.com,2013-05-18 14:06:00,
2013-05-18 10:21:00,64.0,-38.4,30.22,SE,135,3.7,-999.0,1,-99.99,,,0.00,Acu-Link.com,2013-05-18 14:21:00,
2013-05-18 10:36:00,63.9,-38.5,30.22,ESE,112,3.7,-999.0,1,-99.99,,,0.00,Acu-Link.com,2013-05-18 14:36:00,
2013-05-18 10:52:00,64.0,-38.4,30.22,South,180,5.3,-999.0,1,-99.99,,,0.00,Acu-Link.com,2013-05-18 14:52:00,
2013-05-18 11:07:00,64.4,-38.2,30.22,South,180,7.8,-999.0,1,-99.99,,,0.00,Acu-Link.com,2013-05-18 15:07:00,
2013-05-18 11:24:00,66.2,-37.1,30.22,ESE,112,5.8,-999.0,1,-99.99,,,0.00,Acu-Link.com,2013-05-18 15:24:00,
2013-05-18 11:41:00,66.4,-37.0,30.22,SE,135,4.7,-999.0,1,-99.99,,,0.00,Acu-Link.com,2013-05-18 15:41:00,
2013-05-18 11:59:00,65.7,-37.4,30.22,SE,135,4.7,-999.0,1,-99.99,,,0.00,Acu-Link.com,2013-05-18 15:59:00,
2013-05-18 12:14:00,65.7,-37.4,30.23,South,180,2.7,-999.0,1,-99.99,,,0.00,Acu-Link.com,2013-05-18 16:14:00,
2013-05-18 12:29:00,65.3,-37.6,30.22,ESE,112,3.7,-999.0,1,-99.99,,,0.00,Acu-Link.com,2013-05-18 16:29:00,
2013-05-18 12:45:00,64.6,-38.1,30.21,ESE,112,4.7,-999.0,1,-99.99,,,0.00,Acu-Link.com,2013-05-18 16:45:00,
2013-05-18 13:00:00,65.1,-37.8,30.20,ESE,112,5.3,-999.0,1,-99.99,,,0.00,Acu-Link.com,2013-05-18 17:00:00,
2013-05-18 13:15:00,64.6,-38.1,30.21,East,90,3.7,-999.0,1,-99.99,,,0.00,Acu-Link.com,2013-05-18 17:15:00,
2013-05-18 13:30:00,64.4,-38.2,30.21,ESE,112,2.2,-999.0,1,-99.99,,,0.00,Acu-Link.com,2013-05-18 17:30:00,
2013-05-18 13:45:00,64.0,-38.4,30.21,ESE,112,4.2,-999.0,1,-99.99,,,0.00,Acu-Link.com,2013-05-18 17:45:00,
2013-05-18 14:02:00,64.6,-38.1,30.20,ESE,112,4.7,-999.0,1,-99.99,,,0.00,Acu-Link.com,2013-05-18 18:02:00,
2013-05-18 14:18:00,64.4,-38.2,30.20,SE,135,6.3,-999.0,1,-99.99,,,0.00,Acu-Link.com,2013-05-18 18:18:00,
2013-05-18 14:33:00,65.3,-37.6,30.19,South,180,4.7,-999.0,1,-99.99,,,0.00,Acu-Link.com,2013-05-18 18:33:00,
2013-05-18 14:48:00,64.8,-37.9,30.20,SE,135,7.8,-999.0,1,-99.99,,,0.00,Acu-Link.com,2013-05-18 18:48:00,
2013-05-18 15:06:00,63.9,-38.5,30.19,ESE,112,3.7,-999.0,1,-99.99,,,0.00,Acu-Link.com,2013-05-18 19:06:00,
2013-05-18 15:22:00,64.8,-37.9,30.19,ESE,112,4.2,-999.0,1,-99.99,,,0.00,Acu-Link.com,2013-05-18 19:22:00,
2013-05-18 15:39:00,64.4,-38.2,30.19,ESE,112,3.7,-999.0,1,-99.99,,,0.00,Acu-Link.com,2013-05-18 19:39:00,
2013-05-18 15:55:00,64.4,-38.2,30.19,SE,135,4.7,-999.0,1,-99.99,,,0.00,Acu-Link.com,2013-05-18 19:55:00,
2013-05-18 16:11:00,64.4,-38.2,30.18,ESE,112,2.2,-999.0,1,-99.99,,,0.00,Acu-Link.com,2013-05-18 20:11:00,
2013-05-18 16:28:00,64.2,-38.3,30.19,SE,135,4.2,-999.0,1,-99.99,,,0.00,Acu-Link.com,2013-05-18 20:28:00,
2013-05-18 16:44:00,63.7,-38.6,30.19,ESE,112,2.7,-999.0,1,-99.99,,,0.00,Acu-Link.com,2013-05-18 20:44:00,
2013-05-18 17:00:00,63.5,-38.7,30.18,SSE,157,3.7,-999.0,1,-99.99,,,0.00,Acu-Link.com,2013-05-18 21:00:00,
2013-05-18 17:17:00,62.2,-39.5,30.19,East,90,1.7,-999.0,1,-99.99,,,0.00,Acu-Link.com,2013-05-18 21:17:00,
2013-05-18 17:33:00,61.7,-39.8,30.19,East,90,3.2,-999.0,1,-99.99,,,0.01,Acu-Link.com,2013-05-18 21:33:00,
2013-05-18 17:48:00,61.2,-40.1,30.18,East,90,2.2,-999.0,1,-99.99,,,0.01,Acu-Link.com,2013-05-18 21:48:00,
2013-05-18 18:04:00,61.0,-40.2,30.18,East,90,2.2,-999.0,1,-99.99,,,0.01,Acu-Link.com,2013-05-18 22:04:00,
2013-05-18 18:20:00,61.3,-40.1,30.18,East,90,1.7,-999.0,1,-99.99,,,0.01,Acu-Link.com,2013-05-18 22:20:00,
2013-05-18 18:35:00,61.7,-39.8,30.18,East,90,2.7,-999.0,1,-99.99,,,0.01,Acu-Link.com,2013-05-18 22:35:00,
2013-05-18 18:51:00,61.7,-39.8,30.17,East,90,2.7,-999.0,1,-99.99,,,0.01,Acu-Link.com,2013-05-18 22:51:00,
2013-05-18 19:08:00,61.7,-39.8,30.18,East,90,3.2,-999.0,1,-99.99,,,0.01,Acu-Link.com,2013-05-18 23:08:00,
2013-05-18 19:24:00,61.7,-39.8,30.18,ENE,67,2.2,-999.0,1,-99.99,,,0.01,Acu-Link.com,2013-05-18 23:24:00,
2013-05-18 19:39:00,61.5,-39.9,30.18,ESE,112,2.7,-999.0,1,-99.99,,,0.01,Acu-Link.com,2013-05-18 23:39:00,
2013-05-18 19:56:00,61.9,-39.7,30.18,ENE,67,1.7,-999.0,1,-99.99,,,0.01,Acu-Link.com,2013-05-18 23:56:00,
2013-05-18 20:13:00,61.9,-39.7,30.18,East,90,1.7,-999.0,1,-99.99,,,0.02,Acu-Link.com,2013-05-19 00:13:00,
2013-05-18 20:28:00,61.9,-39.7,30.18,ESE,112,3.2,-999.0,1,-99.99,,,0.02,Acu-Link.com,2013-05-19 00:28:00,
2013-05-18 20:43:00,62.1,7.0,30.18,East,90,3.2,-999.0,11,-99.99,,,0.05,Acu-Link.com,2013-05-19 00:43:00,
2013-05-18 20:58:00,62.2,14.0,30.17,East,90,1.7,-999.0,15,-99.99,,,0.08,Acu-Link.com,2013-05-19 00:58:00,
2013-05-18 21:13:00,62.4,10.9,30.17,ESE,112,4.2,-999.0,13,-99.99,,,0.11,Acu-Link.com,2013-05-19 01:13:00,
2013-05-18 21:29:00,62.6,14.3,30.17,ESE,112,3.7,-999.0,15,-99.99,,,0.12,Acu-Link.com,2013-05-19 01:29:00,
2013-05-18 21:44:00,62.8,25.5,30.17,ESE,112,4.2,-999.0,24,-99.99,,,0.15,Acu-Link.com,2013-05-19 01:44:00,
2013-05-18 21:59:00,63.1,28.6,30.17,ESE,112,4.2,-999.0,27,-99.99,,,0.17,Acu-Link.com,2013-05-19 01:59:00,
2013-05-18 22:14:00,63.5,25.0,30.18,ESE,112,4.7,-999.0,23,-99.99,,,0.19,Acu-Link.com,2013-05-19 02:14:00,
2013-05-18 22:30:00,64.0,22.1,30.17,ESE,112,5.3,-999.0,20,-99.99,,,0.19,Acu-Link.com,2013-05-19 02:30:00,
2013-05-18 22:45:00,64.0,24.4,30.17,ESE,112,3.7,-999.0,22,-99.99,,,0.21,Acu-Link.com,2013-05-19 02:45:00,
2013-05-18 23:00:00,64.2,23.5,30.17,East,90,3.7,-999.0,21,-99.99,,,0.22,Acu-Link.com,2013-05-19 03:00:00,
2013-05-18 23:15:00,64.2,22.3,30.16,ESE,112,5.8,-999.0,20,-99.99,,,0.23,Acu-Link.com,2013-05-19 03:15:00,
2013-05-18 23:30:00,64.4,22.5,30.16,East,90,9.9,-999.0,20,-99.99,,,0.23,Acu-Link.com,2013-05-19 03:30:00,
2013-05-18 23:46:00,64.6,18.8,30.16,SE,135,6.3,-999.0,17,-99.99,,,0.24,Acu-Link.com,2013-05-19 03:46:00,